• Join FlightAware (Why Join?)
  • Login
  • US Flag 
06:23PM EDT


 

Airport Tracker/Info


-or-


 

Live Flight TrackerFlight Track Log ✈ N7PA ✈ 23-Aug-2014 ✈ KBLI - PASI / SIT

Flight Track Log - Related Links

Times and Time Zones

All times are in EDT time to prevent confusion due to time zone crossing. See the N7PA flight status page for this flight to view local times or setup timezone preferences in your user account.

Time Position Orientation Groundspeed Altitude Reporting Facility
EDT Latitude Longitude Course Direction KTS MPH feet Rate Location/Type
05:11PM 48.7000 -122.5833 225° Southwest 190 219 2,200  Level Vancouver Center
05:12PM 48.6667 -122.6333 207° Southwest 210 242 3,800 1,620 Climbing Vancouver Center
05:13PM 48.6833 -122.7333 284° West 220 253 5,500 1,500 Climbing Vancouver Center
05:14PM 48.6833 -122.8333 270° West 220 253 6,900 720 Climbing Vancouver Center
05:16PM 48.7000 -123.0333 277° West 250 288 7,800 780 Climbing Vancouver Center
05:17PM 48.7167 -123.1167 287° West 220 253 9,400 1,680 Climbing Vancouver Center
05:18PM 48.7333 -123.2167 284° West 220 253 11,200 1,800 Climbing Vancouver Center
05:19PM 48.7500 -123.3000 287° West 220 253 13,000 1,680 Climbing Vancouver Center
05:20PM 48.7667 -123.4000 284° West 220 253 14,600 1,500 Climbing Vancouver Center
05:21PM 48.7833 -123.5000 284° West 230 265 16,100 1,500 Climbing Vancouver Center
05:22PM 48.8000 -123.6000 284° West 230 265 17,600 1,320 Climbing Vancouver Center
05:24PM 48.8500 -123.7667 295° West 240 276 20,100 1,320 Climbing Vancouver Center
05:25PM 48.9000 -123.8500 312° West 240 276 21,700 1,500 Climbing Vancouver Center
05:26PM 48.9333 -123.9333 301° West 240 276 23,100 1,140 Climbing Vancouver Center
05:27PM 48.9833 -124.0000 319° Northwest 260 299 24,000 420 Climbing Vancouver Center
05:28PM 49.0333 -124.1000 307° West 290 334 24,000 360 Level Vancouver Center
05:29PM 49.0833 -124.2000 307° West 300 345 24,800 1,080 Climbing Vancouver Center
05:30PM 49.1333 -124.2833 313° West 280 322 26,200 1,200 Climbing Vancouver Center
05:31PM 49.1833 -124.3833 307° West 280 322 27,200 900 Climbing Vancouver Center
05:32PM 49.2333 -124.4833 307° West 280 322 28,100 780 Climbing Vancouver Center
05:33PM 49.2833 -124.5667 313° West 290 334 28,800 780 Climbing Vancouver Center
05:34PM 49.3333 -124.6667 308° West 300 345 29,700 600 Climbing Vancouver Center
05:35PM 49.4000 -124.7667 316° Northwest 300 345 30,000 300 Climbing Vancouver Center
05:36PM 49.4500 -124.9000 300° West 320 368 30,400 960 Climbing Vancouver Center
05:37PM 49.5167 -124.9500 334° Northwest 310 357 32,000 1,200 Climbing Vancouver Center
05:38PM 49.5833 -125.0333 321° Northwest 290 334 32,900 720 Climbing Vancouver Center
05:39PM 49.6500 -125.1167 321° Northwest 290 334 33,500 420 Climbing Vancouver Center
05:40PM 49.7167 -125.2000 321° Northwest 300 345 33,800 240 Climbing Vancouver Center
05:41PM 49.8000 -125.2667 333° Northwest 310 357 34,000 60 Climbing Vancouver Center
05:42PM 49.8667 -125.3500 321° Northwest 320 368 34,000  Level Vancouver Center
05:43PM 49.9500 -125.4333 327° Northwest 330 380 34,000  Level Vancouver Center
05:44PM 50.0167 -125.5167 321° Northwest 340 391 34,000  Level Vancouver Center
05:45PM 50.1000 -125.6000 327° Northwest 350 403 34,000  Level Vancouver Center
05:46PM 50.1667 -125.7000 316° Northwest 350 403 34,000  Level Vancouver Center
05:47PM 50.2500 -125.7833 327° Northwest 360 414 34,000  Level Vancouver Center
05:48PM 50.3333 -125.8667 327° Northwest 360 414 34,000  Level Vancouver Center
05:49PM 50.4167 -125.9667 323° Northwest 360 414 34,000  Level Vancouver Center
05:50PM 50.4833 -126.0500 322° Northwest 360 414 34,000  Level Vancouver Center
05:51PM 50.5833 -126.1667 323° Northwest 360 414 34,000  Level Vancouver Center
05:52PM 50.6500 -126.2500 322° Northwest 360 414 34,000  Level Vancouver Center
05:53PM 50.7333 -126.3500 323° Northwest 350 403 34,000  Level Vancouver Center
05:54PM 50.8167 -126.4333 328° Northwest 350 403 34,000  Level Vancouver Center
05:55PM 50.9000 -126.5333 323° Northwest 350 403 34,000  Level Vancouver Center
05:56PM 50.9667 -126.6167 322° Northwest 350 403 34,000  Level Vancouver Center
05:57PM 51.0333 -126.7167 317° Northwest 350 403 34,000  Level Vancouver Center
05:58PM 51.1167 -126.8000 328° Northwest 350 403 34,000  Level Vancouver Center
05:59PM 51.2000 -126.8833 328° Northwest 350 403 34,000  Level Vancouver Center
06:00PM 51.2833 -127.0000 319° Northwest 350 403 34,000  Level Vancouver Center
06:01PM 51.3500 -127.0833 322° Northwest 350 403 34,000  Level Vancouver Center
06:02PM 51.4333 -127.1667 328° Northwest 350 403 34,000  Level Vancouver Center
06:03PM 51.5167 -127.2667 323° Northwest 350 403 34,000  Level Vancouver Center
06:04PM 51.5833 -127.3667 317° Northwest 350 403 34,000  Level Vancouver Center
06:05PM 51.6500 -127.4667 317° Northwest 340 391 34,000  Level Vancouver Center
06:06PM 51.7333 -127.5500 328° Northwest 340 391 34,000  Level Vancouver Center
06:07PM 51.8167 -127.6667 319° Northwest 340 391 34,000  Level Vancouver Center
06:09PM 51.9667 -127.8333 326° Northwest 340 391 34,000  Level Vancouver Center
06:10PM 52.0167 -127.9167 314° West 340 391 34,000  Level Vancouver Center
06:11PM 52.1000 -128.0167 324° Northwest 330 380 34,000  Level Vancouver Center
06:12PM 52.1667 -128.1000 323° Northwest 330 380 34,000  Level Vancouver Center
06:13PM 52.2500 -128.2167 319° Northwest 330 380 34,000  Level Vancouver Center
06:14PM 52.3167 -128.3000 323° Northwest 330 380 34,000  Level Vancouver Center
06:15PM 52.3833 -128.4000 318° Northwest 320 368 34,100  Climbing Vancouver Center
06:16PM 52.4500 -128.4833 323° Northwest 320 368 34,000 -60 Descending Vancouver Center
06:17PM 52.5333 -128.5667 329° Northwest 320 368 34,000  Level Vancouver Center
06:18PM 52.6000 -128.6667 318° Northwest 320 368 34,000  Level Vancouver Center
06:19PM 52.6833 -128.7500 329° Northwest 320 368 34,000  Level Vancouver Center
06:20PM 52.7333 -128.8500 310° West 320 368 34,000  Level Vancouver Center
06:21PM 52.8167 -128.9333 329° Northwest 320 368 34,000  Level Vancouver Center
06:22PM 52.8833 -129.0333 318° Northwest 320 368 34,000  Level Vancouver Center
06:23PM 52.9500 -129.1167 323° Northwest 310 357 34,000  Level Vancouver Center
06:24PM 53.0000 -129.2167 310° West 310 357 34,000  Level Vancouver Center
06:25PM 53.0833 -129.3000 329° Northwest 310 357 34,000  Level Vancouver Center
06:26PM 53.1500 -129.4000 318° Northwest 310 357 34,000  Level Vancouver Center
06:27PM 53.2167 -129.4833 323° Northwest 310 357 34,000  Level Vancouver Center
06:28PM 53.2833 -129.5833 318° Northwest 310 357 34,000  Level Vancouver Center
06:29PM 53.3333 -129.6667 315° West 310 357 34,000  Level Vancouver Center
06:30PM 53.4167 -129.7667 324° Northwest 310 357 34,000  Level Vancouver Center
06:31PM 53.4833 -129.8333 329° Northwest 310 357 34,000  Level Vancouver Center
06:32PM 53.5500 -129.9167 323° Northwest 300 345 34,000  Level Vancouver Center
06:33PM 53.6000 -130.0167 310° West 300 345 34,000  Level Vancouver Center
06:34PM 53.6667 -130.1167 318° Northwest 300 345 34,000  Level Vancouver Center
06:35PM 53.7333 -130.2000 324° Northwest 300 345 34,000  Level Vancouver Center
06:36PM 53.8000 -130.3000 318° Northwest 300 345 34,000  Level Vancouver Center
06:37PM 53.8667 -130.4000 319° Northwest 300 345 34,000  Level Vancouver Center
06:38PM 53.9333 -130.4667 330° Northwest 300 345 34,000  Level Vancouver Center
06:39PM 54.0000 -130.5667 319° Northwest 290 334 34,000  Level Vancouver Center
06:40PM 54.0500 -130.6500 316° Northwest 290 334 34,000  Level Vancouver Center
06:41PM 54.1167 -130.7500 319° Northwest 290 334 34,000  Level Vancouver Center
06:42PM 54.1833 -130.8167 330° Northwest 290 334 34,000  Level Vancouver Center
06:43PM 54.2500 -130.9167 319° Northwest 290 334 34,000  Level Vancouver Center
06:44PM 54.3000 -131.0167 311° West 290 334 34,000  Level Vancouver Center
06:45PM 54.3667 -131.1000 324° Northwest 290 334 34,000  Level Vancouver Center
06:46PM 54.4167 -131.1667 322° Northwest 290 334 34,000  Level Vancouver Center
06:47PM 54.4833 -131.2667 319° Northwest 290 334 34,000  Level Vancouver Center
06:48PM 54.5333 -131.3667 311° West 280 322 34,000  Level Vancouver Center
06:49PM 54.6000 -131.4667 319° Northwest 280 322 34,000  Level Vancouver Center
06:50PM 54.6500 -131.5333 322° Northwest 280 322 34,000  Level Vancouver Center
06:52PM 54.7500 -131.6333 330° Northwest 280 322 34,000  Level Anchorage Center
06:53PM 54.8167 -131.7333 319° Northwest 280 322 34,000  Level Anchorage Center
06:54PM 54.8667 -131.8167 316° Northwest 280 322 34,000  Level Anchorage Center
06:55PM 54.9167 -131.9000 316° Northwest 280 322 34,000  Level Anchorage Center
06:56PM 54.9833 -131.9833 324° Northwest 280 322 34,000  Level Anchorage Center
06:57PM 55.0333 -132.0667 316° Northwest 270 311 34,000  Level Anchorage Center
06:58PM 55.1000 -132.1667 319° Northwest 280 322 34,000  Level Anchorage Center
06:59PM 55.1500 -132.2500 316° Northwest 270 311 34,000  Level Anchorage Center
07:01PM 55.2667 -132.4333 318° Northwest 270 311 34,000  Level Anchorage Center
07:02PM 55.3167 -132.5167 317° Northwest 280 322 34,000  Level Anchorage Center
07:03PM 55.3833 -132.6000 325° Northwest 270 311 34,000  Level Anchorage Center
07:04PM 55.4333 -132.7000 311° West 280 322 34,000  Level Anchorage Center
07:05PM 55.4833 -132.7833 317° Northwest 270 311 34,000  Level Anchorage Center
07:06PM 55.5500 -132.8667 325° Northwest 270 311 34,000  Level Anchorage Center
07:07PM 55.6000 -132.9667 312° West 270 311 34,000  Level Anchorage Center
07:08PM 55.6667 -133.0500 325° Northwest 270 311 34,000  Level Anchorage Center
07:09PM 55.7167 -133.1333 317° Northwest 270 311 34,000  Level Anchorage Center
07:10PM 55.7667 -133.2333 312° West 270 311 34,000  Level Anchorage Center
07:11PM 55.8167 -133.3167 317° Northwest 270 311 34,000  Level Anchorage Center
07:12PM 55.8833 -133.4167 320° Northwest 280 322 34,000  Level Anchorage Center
07:13PM 55.9333 -133.5000 317° Northwest 270 311 34,000  Level Anchorage Center
07:14PM 56.0000 -133.6000 320° Northwest 280 322 34,000  Level Anchorage Center
07:15PM 56.0500 -133.6833 317° Northwest 280 322 34,000  Level Anchorage Center
07:16PM 56.1000 -133.7833 312° West 270 311 34,000  Level Anchorage Center
07:17PM 56.1667 -133.8667 325° Northwest 270 311 34,000  Level Anchorage Center
07:18PM 56.2167 -133.9667 312° West 270 311 34,000 -180 Level Anchorage Center
07:19PM 56.2667 -134.0500 317° Northwest 270 311 33,700 -900 Descending Anchorage Center
07:20PM 56.3333 -134.1500 320° Northwest 280 322 32,200 -1,320 Descending Anchorage Center
07:21PM 56.3833 -134.2500 312° West 280 322 31,100 -1,440 Descending Anchorage Center
07:22PM 56.4500 -134.3500 320° Northwest 290 334 29,400 -1,620 Descending Anchorage Center
07:23PM 56.5000 -134.4500 312° West 300 345 27,900 -1,500 Descending Anchorage Center
07:24PM 56.5667 -134.5500 320° Northwest 280 322 26,400 -1,620 Descending Anchorage Center
07:25PM 56.6000 -134.6500 301° West 300 345 24,700 -1,920 Descending Anchorage Center
07:26PM 56.6333 -134.7833 294° West 290 334 22,600 -2,100 Descending Anchorage Center
07:27PM 56.6833 -134.9167 304° West 300 345 20,500 -2,160 Descending Anchorage Center
07:28PM 56.7167 -135.0667 292° West 300 345 18,300 -2,160 Descending Anchorage Center
07:29PM 56.7500 -135.2000 295° West 290 334 16,200 -2,460 Descending Anchorage Center
07:30PM 56.8000 -135.3167 308° West 280 322 13,400 -3,000 Descending Anchorage Center
07:31PM 56.8167 -135.4333 285° West 270 311 10,300 -3,120 Descending Anchorage Center
07:33PM 56.9167 -135.5500 328° Northwest 230 265 4,900 -3,000 Descending Vancouver Center
07:34PM 56.9500 -135.4333 62° Northeast 240 276 2,100 -1,860 Descending Vancouver Center
07:35PM 56.9833 -135.3500 54° Northeast 170 196 1,200 -780 Descending Vancouver Center
07:36PM 57.0167 -135.3667 345° North 120 138 600 -600 Descending Vancouver Center